ENKR/KKN METAR and TAF weather

Enter ICAO airport designator
Station Type Date Time Source
ENKR METAR 2020/10/20 17:50 UTC NOAA

ENKR 201750Z VRB02KT 9999 FEW005 SCT010 BKN019 00/M00 Q1016 RMK WIND 731FT VRB03KT


Station Type Date Time Source
ENKR Decoded METAR 2020/10/20 17:50 UTC NOAA

Kirkenes Lufthavn, Norway (ENKR) 69-44N 029-54E 91M
Oct 20, 2020 - 01:50 PM EDT / 2020.10.20 1750 UTC
Wind: Variable at 2 MPH (2 KT):0
Visibility: greater than 7 mile(s):0
Sky conditions: mostly cloudy
Temperature: 32 F (0 C)
Dew Point: 32 F (0 C)
Relative Humidity: 100%
Pressure (altimeter): 30.00 in. Hg (1016 hPa)
ob: ENKR 201750Z VRB02KT 9999 FEW005 SCT010 BKN019 00/M00 Q1016 RMK WIND 731FT VRB03KT
cycle: 18

Station Type Date Time Source
ENKR TAF 2017/08/31 21:36 UTC NOAA

TAF TAF ENKR 312300Z 3121/0109 29005KT 9999 FEW020 SCT040

Example: see airport list